createdAt,value
2023-04-22T00:00:03.000Z,281.09
2023-04-22T00:02:09.000Z,280.96
2023-04-22T00:03:36.000Z,280.9
2023-04-22T00:05:42.000Z,280.84
2023-04-22T00:07:09.000Z,280.96
2023-04-22T00:09:15.000Z,280.9
2023-04-22T00:10:41.000Z,280.9
2023-04-22T00:12:48.000Z,280.9
2023-04-22T00:14:14.000Z,280.9
2023-04-22T00:16:20.000Z,280.9
2023-04-22T00:17:47.000Z,280.9
2023-04-22T00:19:53.000Z,280.84
2023-04-22T00:21:20.000Z,280.84
2023-04-22T00:23:26.000Z,280.84
2023-04-22T00:24:52.000Z,280.84
2023-04-22T00:26:58.000Z,280.84
2023-04-22T00:28:25.000Z,280.84
2023-04-22T00:30:31.000Z,280.9
2023-04-22T00:33:22.000Z,280.9
2023-04-22T00:34:49.000Z,280.84
2023-04-22T00:36:55.000Z,280.84
2023-04-22T00:38:21.000Z,280.77
2023-04-22T00:40:27.000Z,280.9
2023-04-22T00:41:54.000Z,280.9
2023-04-22T00:44:00.000Z,280.96
2023-04-22T00:45:26.000Z,281.02
2023-04-22T00:47:33.000Z,281.02
2023-04-22T00:48:59.000Z,281.02
2023-04-22T00:51:05.000Z,281.02
2023-04-22T00:52:32.000Z,280.96
2023-04-22T00:54:38.000Z,280.96
2023-04-22T00:56:05.000Z,281.02
2023-04-22T00:58:11.000Z,281.02
2023-04-22T00:59:37.000Z,281.02
2023-04-22T01:01:44.000Z,281.02
2023-04-22T01:03:11.000Z,281.02
2023-04-22T01:05:17.000Z,281.02
2023-04-22T01:06:43.000Z,280.96
2023-04-22T01:08:50.000Z,280.9
2023-04-22T01:11:41.000Z,280.9
2023-04-22T01:13:07.000Z,280.96
2023-04-22T01:15:13.000Z,280.9
2023-04-22T01:16:40.000Z,280.84
2023-04-22T01:18:46.000Z,280.84
2023-04-22T01:20:13.000Z,280.84
2023-04-22T01:22:19.000Z,280.84
2023-04-22T01:23:45.000Z,280.84
2023-04-22T01:25:51.000Z,280.84
2023-04-22T01:27:18.000Z,280.84
2023-04-22T01:29:24.000Z,280.84
2023-04-22T01:30:50.000Z,280.84
2023-04-22T01:32:56.000Z,280.84
2023-04-22T01:34:23.000Z,280.84
2023-04-22T01:36:29.000Z,280.77
2023-04-22T01:37:56.000Z,280.84
2023-04-22T01:40:02.000Z,280.77
2023-04-22T01:41:28.000Z,280.84
2023-04-22T01:43:34.000Z,280.84
2023-04-22T01:45:01.000Z,280.84
2023-04-22T01:47:07.000Z,280.77
2023-04-22T01:49:58.000Z,280.84
2023-04-22T01:51:25.000Z,280.84
2023-04-22T01:53:31.000Z,280.84
2023-04-22T01:54:57.000Z,280.84
2023-04-22T01:57:03.000Z,280.77
2023-04-22T01:58:30.000Z,280.77
2023-04-22T02:00:36.000Z,280.84
2023-04-22T02:02:03.000Z,280.84
2023-04-22T02:04:09.000Z,280.84
2023-04-22T02:05:35.000Z,280.84
2023-04-22T02:07:41.000Z,280.84
2023-04-22T02:09:08.000Z,280.84
2023-04-22T02:11:14.000Z,280.77
2023-04-22T02:12:40.000Z,280.77
2023-04-22T02:14:47.000Z,280.77
2023-04-22T02:16:13.000Z,280.71
2023-04-22T02:18:19.000Z,280.77
2023-04-22T02:19:46.000Z,280.77
2023-04-22T02:21:52.000Z,280.77
2023-04-22T02:23:19.000Z,280.84
2023-04-22T02:25:25.000Z,280.84
2023-04-22T02:28:16.000Z,280.84
2023-04-22T02:29:43.000Z,280.84
2023-04-22T02:31:49.000Z,280.84
2023-04-22T02:33:15.000Z,280.84
2023-04-22T02:35:21.000Z,280.77
2023-04-22T02:36:48.000Z,280.77
2023-04-22T02:38:54.000Z,280.71
2023-04-22T02:40:21.000Z,280.71
2023-04-22T02:42:27.000Z,280.71
2023-04-22T02:43:53.000Z,280.71
2023-04-22T02:45:59.000Z,280.77
2023-04-22T02:47:26.000Z,280.71
2023-04-22T02:49:32.000Z,280.71
2023-04-22T02:50:59.000Z,280.77
2023-04-22T02:53:05.000Z,280.77
2023-04-22T02:54:31.000Z,280.77
2023-04-22T02:56:37.000Z,280.77
2023-04-22T02:58:04.000Z,280.71
2023-04-22T03:00:10.000Z,280.65
2023-04-22T03:01:36.000Z,280.65
2023-04-22T03:03:43.000Z,280.71
2023-04-22T03:06:34.000Z,280.71
2023-04-22T03:08:00.000Z,280.77
2023-04-22T03:10:07.000Z,280.77
2023-04-22T03:11:33.000Z,280.77
2023-04-22T03:13:39.000Z,280.84
2023-04-22T03:15:06.000Z,280.84
2023-04-22T03:17:12.000Z,280.84
2023-04-22T03:18:38.000Z,280.84
2023-04-22T03:20:44.000Z,280.77
2023-04-22T03:22:11.000Z,280.77
2023-04-22T03:24:17.000Z,280.77
2023-04-22T03:25:43.000Z,280.77
2023-04-22T03:27:49.000Z,280.71
2023-04-22T03:29:16.000Z,280.77
2023-04-22T03:31:22.000Z,280.77
2023-04-22T03:32:49.000Z,280.77
2023-04-22T03:34:55.000Z,280.77
2023-04-22T03:36:21.000Z,280.77
2023-04-22T03:38:27.000Z,280.71
2023-04-22T03:39:54.000Z,280.71
2023-04-22T03:42:00.000Z,280.65
2023-04-22T03:44:51.000Z,280.65
2023-04-22T03:46:18.000Z,280.65
2023-04-22T03:48:24.000Z,280.65
2023-04-22T03:49:50.000Z,280.65
2023-04-22T03:51:57.000Z,280.59
2023-04-22T03:53:23.000Z,280.65
2023-04-22T03:55:29.000Z,280.65
2023-04-22T03:56:56.000Z,280.65
2023-04-22T03:59:02.000Z,280.65
2023-04-22T04:00:28.000Z,280.65
2023-04-22T04:02:35.000Z,280.65
2023-04-22T04:04:01.000Z,280.65
2023-04-22T04:06:08.000Z,280.59
2023-04-22T04:07:34.000Z,280.59
2023-04-22T04:09:40.000Z,280.59
2023-04-22T04:11:07.000Z,280.59
2023-04-22T04:13:13.000Z,280.52
2023-04-22T04:14:40.000Z,280.59
2023-04-22T04:16:46.000Z,280.59
2023-04-22T04:18:12.000Z,280.59
2023-04-22T04:20:18.000Z,280.59
2023-04-22T04:23:09.000Z,280.59
2023-04-22T04:24:36.000Z,280.59
2023-04-22T04:26:42.000Z,280.59
2023-04-22T04:28:08.000Z,280.59
2023-04-22T04:30:14.000Z,280.59
2023-04-22T04:31:41.000Z,280.52
2023-04-22T04:33:47.000Z,280.52
2023-04-22T04:35:14.000Z,280.52
2023-04-22T04:37:20.000Z,280.46
2023-04-22T04:38:46.000Z,280.52
2023-04-22T04:40:53.000Z,280.52
2023-04-22T04:42:19.000Z,280.52
2023-04-22T04:44:25.000Z,280.52
2023-04-22T04:45:52.000Z,280.52
2023-04-22T04:47:58.000Z,280.52
2023-04-22T04:49:25.000Z,280.52
2023-04-22T04:51:31.000Z,280.52
2023-04-22T04:52:57.000Z,280.52
2023-04-22T04:55:03.000Z,280.59
2023-04-22T04:56:30.000Z,280.59
2023-04-22T04:58:36.000Z,280.65
2023-04-22T05:01:27.000Z,280.71
2023-04-22T05:02:53.000Z,280.77
2023-04-22T05:05:00.000Z,280.84
2023-04-22T05:06:27.000Z,280.84
2023-04-22T05:08:33.000Z,280.84
2023-04-22T05:09:59.000Z,280.9
2023-04-22T05:12:05.000Z,280.96
2023-04-22T05:13:32.000Z,280.96
2023-04-22T05:15:38.000Z,281.02
2023-04-22T05:17:05.000Z,281.15
2023-04-22T05:19:11.000Z,281.21
2023-04-22T05:20:37.000Z,281.27
2023-04-22T05:22:43.000Z,281.27
2023-04-22T05:24:10.000Z,281.4
2023-04-22T05:26:16.000Z,281.4
2023-04-22T05:27:43.000Z,281.46
2023-04-22T05:29:49.000Z,281.52
2023-04-22T05:31:15.000Z,281.59
2023-04-22T05:33:22.000Z,281.65
2023-04-22T05:34:48.000Z,281.71
2023-04-22T05:36:54.000Z,281.71
2023-04-22T05:39:45.000Z,281.77
2023-04-22T05:41:12.000Z,281.84
2023-04-22T05:43:18.000Z,281.96
2023-04-22T05:44:45.000Z,281.96
2023-04-22T05:46:51.000Z,281.96
2023-04-22T05:48:17.000Z,281.96
2023-04-22T05:50:23.000Z,282.02
2023-04-22T05:51:50.000Z,281.96
2023-04-22T05:53:56.000Z,282.02
2023-04-22T05:55:23.000Z,282.09
2023-04-22T05:57:29.000Z,282.02
2023-04-22T05:58:55.000Z,282.09
2023-04-22T06:01:01.000Z,282.15
2023-04-22T06:02:28.000Z,282.21
2023-04-22T06:04:34.000Z,282.21
2023-04-22T06:06:02.000Z,282.15
2023-04-22T06:08:09.000Z,282.15
2023-04-22T06:09:35.000Z,282.21
2023-04-22T06:11:42.000Z,282.21
2023-04-22T06:13:08.000Z,282.21
2023-04-22T06:15:15.000Z,282.21
2023-04-22T06:18:06.000Z,282.27
2023-04-22T06:19:32.000Z,282.27
2023-04-22T06:21:38.000Z,282.34
2023-04-22T06:23:05.000Z,282.34
2023-04-22T06:25:11.000Z,282.4
2023-04-22T06:26:37.000Z,282.46
2023-04-22T06:28:43.000Z,282.46
2023-04-22T06:30:10.000Z,282.52
2023-04-22T06:32:16.000Z,282.52
2023-04-22T06:33:43.000Z,282.59
2023-04-22T06:35:49.000Z,282.65
2023-04-22T06:37:15.000Z,282.65
2023-04-22T06:39:22.000Z,282.71
2023-04-22T06:40:48.000Z,282.77
2023-04-22T06:42:54.000Z,282.77
2023-04-22T06:44:21.000Z,282.84
2023-04-22T06:46:27.000Z,282.9
2023-04-22T06:47:53.000Z,282.9
2023-04-22T06:49:59.000Z,282.96
2023-04-22T06:51:26.000Z,283.02
2023-04-22T06:53:32.000Z,283.15
2023-04-22T06:56:23.000Z,283.21
2023-04-22T06:57:50.000Z,283.27
2023-04-22T06:59:56.000Z,283.4
2023-04-22T07:01:23.000Z,283.46
2023-04-22T07:03:29.000Z,283.52
2023-04-22T07:04:55.000Z,283.65
2023-04-22T07:07:02.000Z,283.77
2023-04-22T07:08:28.000Z,283.9
2023-04-22T07:10:34.000Z,283.96
2023-04-22T07:12:01.000Z,284.09
2023-04-22T07:14:07.000Z,284.15
2023-04-22T07:15:33.000Z,284.15
2023-04-22T07:17:39.000Z,284.34
2023-04-22T07:19:06.000Z,284.46
2023-04-22T07:21:12.000Z,284.65
2023-04-22T07:22:39.000Z,284.77
2023-04-22T07:24:45.000Z,284.96
2023-04-22T07:26:11.000Z,285.09
2023-04-22T07:28:18.000Z,285.15
2023-04-22T07:29:44.000Z,285.21
2023-04-22T07:31:50.000Z,285.27
2023-04-22T07:34:42.000Z,285.4
2023-04-22T07:36:08.000Z,285.46
2023-04-22T07:38:14.000Z,285.52
2023-04-22T07:39:41.000Z,285.65
2023-04-22T07:41:47.000Z,285.71
2023-04-22T07:43:13.000Z,285.71
2023-04-22T07:45:20.000Z,285.84
2023-04-22T07:46:46.000Z,285.84
2023-04-22T07:48:52.000Z,285.96
2023-04-22T07:50:19.000Z,285.96
2023-04-22T07:52:25.000Z,286.02
2023-04-22T07:53:51.000Z,286.15
2023-04-22T07:55:58.000Z,286.4
2023-04-22T07:57:26.000Z,286.46
2023-04-22T07:59:32.000Z,286.46
2023-04-22T08:00:59.000Z,286.65
2023-04-22T08:03:05.000Z,286.71
2023-04-22T08:04:32.000Z,286.84
2023-04-22T08:06:38.000Z,286.9
2023-04-22T08:08:05.000Z,286.96
2023-04-22T08:10:11.000Z,287.09
2023-04-22T08:13:02.000Z,287.34
2023-04-22T08:14:29.000Z,287.46
2023-04-22T08:16:35.000Z,287.65
2023-04-22T08:18:01.000Z,287.59
2023-04-22T08:20:08.000Z,287.52
2023-04-22T08:21:34.000Z,287.52
2023-04-22T08:23:40.000Z,287.84
2023-04-22T08:25:07.000Z,287.71
2023-04-22T08:27:13.000Z,287.77
2023-04-22T08:28:39.000Z,287.84
2023-04-22T08:30:45.000Z,287.96
2023-04-22T08:32:12.000Z,288.09
2023-04-22T08:34:18.000Z,288.21
2023-04-22T08:35:45.000Z,288.27
2023-04-22T08:37:51.000Z,288.4
2023-04-22T08:39:17.000Z,288.52
2023-04-22T08:41:23.000Z,288.46
2023-04-22T08:42:50.000Z,288.65
2023-04-22T08:44:56.000Z,288.71
2023-04-22T08:46:23.000Z,288.84
2023-04-22T08:48:29.000Z,288.77
2023-04-22T08:51:20.000Z,288.9
2023-04-22T08:52:47.000Z,289.02
2023-04-22T08:54:53.000Z,289.02
2023-04-22T08:56:20.000Z,289.02
2023-04-22T08:58:26.000Z,289.09
2023-04-22T08:59:52.000Z,289.21
2023-04-22T09:01:58.000Z,289.4
2023-04-22T09:03:25.000Z,289.59
2023-04-22T09:05:31.000Z,289.71
2023-04-22T09:06:58.000Z,289.65
2023-04-22T09:09:04.000Z,289.46
2023-04-22T09:10:30.000Z,289.4
2023-04-22T09:12:38.000Z,289.46
2023-04-22T09:14:05.000Z,289.52
2023-04-22T09:16:11.000Z,289.65
2023-04-22T09:17:37.000Z,289.84
2023-04-22T09:19:43.000Z,289.9
2023-04-22T09:21:10.000Z,289.96
2023-04-22T09:23:16.000Z,289.9
2023-04-22T09:24:42.000Z,289.96
2023-04-22T09:26:49.000Z,289.9
2023-04-22T09:29:40.000Z,289.9
2023-04-22T09:31:06.000Z,289.96
2023-04-22T09:33:12.000Z,290.02
2023-04-22T09:34:39.000Z,290.02
2023-04-22T09:36:45.000Z,290.09
2023-04-22T09:38:12.000Z,290.15
2023-04-22T09:40:18.000Z,290.27
2023-04-22T09:41:44.000Z,290.4
2023-04-22T09:43:50.000Z,290.65
2023-04-22T09:45:17.000Z,290.84
2023-04-22T09:47:23.000Z,290.84
2023-04-22T09:48:49.000Z,290.96
2023-04-22T09:50:56.000Z,290.96
2023-04-22T09:52:22.000Z,291.02
2023-04-22T09:54:28.000Z,291.15
2023-04-22T09:55:55.000Z,291.27
2023-04-22T09:58:01.000Z,291.46
2023-04-22T09:59:27.000Z,291.34
2023-04-22T10:01:34.000Z,291.21
2023-04-22T10:03:00.000Z,291.27
2023-04-22T10:05:07.000Z,291.4
2023-04-22T10:07:58.000Z,291.52
2023-04-22T10:09:25.000Z,291.65
2023-04-22T10:11:31.000Z,291.9
2023-04-22T10:12:58.000Z,291.9
2023-04-22T10:15:04.000Z,291.96
2023-04-22T10:16:30.000Z,291.96
2023-04-22T10:18:36.000Z,291.96
2023-04-22T10:20:03.000Z,291.96
2023-04-22T10:22:09.000Z,292.02
2023-04-22T10:23:35.000Z,292.02
2023-04-22T10:25:42.000Z,292.09
2023-04-22T10:27:08.000Z,292.02
2023-04-22T10:29:15.000Z,292.02
2023-04-22T10:30:41.000Z,291.96
2023-04-22T10:32:47.000Z,291.96
2023-04-22T10:34:14.000Z,292.02
2023-04-22T10:36:20.000Z,292.02
2023-04-22T10:37:46.000Z,292.02
2023-04-22T10:39:53.000Z,292.15
2023-04-22T10:41:19.000Z,292.21
2023-04-22T10:43:25.000Z,292.27
2023-04-22T10:46:16.000Z,292.27
2023-04-22T10:47:43.000Z,292.46
2023-04-22T10:49:49.000Z,292.65
2023-04-22T10:51:16.000Z,292.65
2023-04-22T10:53:22.000Z,292.65
2023-04-22T10:54:48.000Z,292.77
2023-04-22T10:56:54.000Z,293.02
2023-04-22T10:58:23.000Z,293.09
2023-04-22T11:00:29.000Z,293.09
2023-04-22T11:02:16.000Z,293.02
2023-04-22T11:04:22.000Z,292.96
2023-04-22T11:05:49.000Z,292.84
2023-04-22T11:07:55.000Z,292.9
2023-04-22T11:09:22.000Z,292.84
2023-04-22T11:11:28.000Z,292.84
2023-04-22T11:12:54.000Z,293.09
2023-04-22T11:15:01.000Z,293.09
2023-04-22T11:16:27.000Z,293.02
2023-04-22T11:18:33.000Z,293.21
2023-04-22T11:20:00.000Z,293.34
2023-04-22T11:22:06.000Z,293.4
2023-04-22T11:24:57.000Z,293.46
2023-04-22T11:26:24.000Z,293.4
2023-04-22T11:28:30.000Z,293.4
2023-04-22T11:29:56.000Z,293.4
2023-04-22T11:32:03.000Z,293.09
2023-04-22T11:33:29.000Z,293.09
2023-04-22T11:35:35.000Z,293.15
2023-04-22T11:37:02.000Z,293.21
2023-04-22T11:39:08.000Z,293.09
2023-04-22T11:40:34.000Z,293.21
2023-04-22T11:42:44.000Z,293.27
2023-04-22T11:44:10.000Z,293.21
2023-04-22T11:46:16.000Z,293.21
2023-04-22T11:47:46.000Z,293.27
2023-04-22T11:49:52.000Z,293.21
2023-04-22T11:51:19.000Z,293.34
2023-04-22T11:53:25.000Z,293.34
2023-04-22T11:54:51.000Z,293.4
2023-04-22T11:56:57.000Z,293.27
2023-04-22T11:58:24.000Z,293.21
2023-04-22T12:00:30.000Z,293.34
2023-04-22T12:03:21.000Z,293.34
2023-04-22T12:04:49.000Z,293.34
2023-04-22T12:06:55.000Z,293.34
2023-04-22T12:08:22.000Z,293.27
2023-04-22T12:10:28.000Z,293.27
2023-04-22T12:11:54.000Z,293.27
2023-04-22T12:14:00.000Z,293.4
2023-04-22T12:15:27.000Z,293.4
2023-04-22T12:17:33.000Z,293.27
2023-04-22T12:18:59.000Z,293.34
2023-04-22T12:21:06.000Z,293.21
2023-04-22T12:22:32.000Z,293.27
2023-04-22T12:24:38.000Z,293.27
2023-04-22T12:26:05.000Z,293.34
2023-04-22T12:28:11.000Z,293.4
2023-04-22T12:29:38.000Z,293.46
2023-04-22T12:31:44.000Z,293.59
2023-04-22T12:33:11.000Z,293.65
2023-04-22T12:35:17.000Z,293.71
2023-04-22T12:36:44.000Z,293.84
2023-04-22T12:38:50.000Z,293.77
2023-04-22T12:41:41.000Z,293.84
2023-04-22T12:43:07.000Z,293.96
2023-04-22T12:45:13.000Z,294.34
2023-04-22T12:46:40.000Z,294.52
2023-04-22T12:48:46.000Z,294.71
2023-04-22T12:50:12.000Z,294.84
2023-04-22T12:52:19.000Z,294.9
2023-04-22T12:53:45.000Z,294.96
2023-04-22T12:55:51.000Z,294.9
2023-04-22T12:57:18.000Z,294.9
2023-04-22T12:59:24.000Z,294.9
2023-04-22T13:00:51.000Z,295.02
2023-04-22T13:02:57.000Z,295.02
2023-04-22T13:04:23.000Z,294.96
2023-04-22T13:06:30.000Z,295.02
2023-04-22T13:07:56.000Z,295.02
2023-04-22T13:10:11.000Z,295.02
2023-04-22T13:11:38.000Z,294.84
2023-04-22T13:13:44.000Z,294.52
2023-04-22T13:15:10.000Z,294.34
2023-04-22T13:17:16.000Z,294.27
2023-04-22T13:20:08.000Z,294.15
2023-04-22T13:21:34.000Z,294.15
2023-04-22T13:23:40.000Z,294.02
2023-04-22T13:25:07.000Z,294.02
2023-04-22T13:27:13.000Z,293.9
2023-04-22T13:28:39.000Z,293.96
2023-04-22T13:30:46.000Z,294.02
2023-04-22T13:32:12.000Z,294.02
2023-04-22T13:34:18.000Z,293.84
2023-04-22T13:35:45.000Z,293.84
2023-04-22T13:37:51.000Z,293.96
2023-04-22T13:39:18.000Z,294.02
2023-04-22T13:41:24.000Z,293.96
2023-04-22T13:42:50.000Z,293.96
2023-04-22T13:44:57.000Z,293.84
2023-04-22T13:46:23.000Z,293.84
2023-04-22T13:48:29.000Z,293.84
2023-04-22T13:49:56.000Z,293.84
2023-04-22T13:52:02.000Z,293.9
2023-04-22T13:53:29.000Z,293.84
2023-04-22T13:55:38.000Z,293.84
2023-04-22T13:58:29.000Z,293.77
2023-04-22T13:59:56.000Z,293.71
2023-04-22T14:02:02.000Z,293.65
2023-04-22T14:03:28.000Z,293.52
2023-04-22T14:05:35.000Z,293.46
2023-04-22T14:07:02.000Z,293.4
2023-04-22T14:09:08.000Z,293.4
2023-04-22T14:10:35.000Z,293.52
2023-04-22T14:12:41.000Z,293.52
2023-04-22T14:14:07.000Z,293.52
2023-04-22T14:16:13.000Z,293.65
2023-04-22T14:17:40.000Z,293.65
2023-04-22T14:19:46.000Z,293.65
2023-04-22T14:21:13.000Z,293.65
2023-04-22T14:23:19.000Z,293.52
2023-04-22T14:24:46.000Z,293.34
2023-04-22T14:26:52.000Z,293.27
2023-04-22T14:28:18.000Z,293.34
2023-04-22T14:30:25.000Z,293.34
2023-04-22T14:31:51.000Z,293.34
2023-04-22T14:33:57.000Z,293.27
2023-04-22T14:36:48.000Z,293.15
2023-04-22T14:38:15.000Z,293.15
2023-04-22T14:40:21.000Z,293.09
2023-04-22T14:41:48.000Z,293.02
2023-04-22T14:43:54.000Z,292.96
2023-04-22T14:45:20.000Z,292.96
2023-04-22T14:47:26.000Z,292.84
2023-04-22T14:48:53.000Z,292.84
2023-04-22T14:50:59.000Z,292.84
2023-04-22T14:52:26.000Z,292.84
2023-04-22T14:54:32.000Z,292.77
2023-04-22T14:55:58.000Z,292.77
2023-04-22T14:58:04.000Z,292.77
2023-04-22T14:59:31.000Z,292.77
2023-04-22T15:01:37.000Z,292.71
2023-04-22T15:03:04.000Z,292.71
2023-04-22T15:05:10.000Z,292.65
2023-04-22T15:06:37.000Z,292.65
2023-04-22T15:08:43.000Z,292.59
2023-04-22T15:10:09.000Z,292.52
2023-04-22T15:12:16.000Z,292.46
2023-04-22T15:15:07.000Z,292.4
2023-04-22T15:16:33.000Z,292.27
2023-04-22T15:18:40.000Z,292.21
2023-04-22T15:20:06.000Z,292.15
2023-04-22T15:22:13.000Z,292.15
2023-04-22T15:23:40.000Z,292.09
2023-04-22T15:25:46.000Z,292.02
2023-04-22T15:27:12.000Z,291.96
2023-04-22T15:29:18.000Z,291.9
2023-04-22T15:30:45.000Z,291.9
2023-04-22T15:32:51.000Z,291.71
2023-04-22T15:34:17.000Z,291.65
2023-04-22T15:36:24.000Z,291.65
2023-04-22T15:37:50.000Z,291.65
2023-04-22T15:39:56.000Z,291.59
2023-04-22T15:41:23.000Z,291.65
2023-04-22T15:43:29.000Z,291.59
2023-04-22T15:44:55.000Z,291.59
2023-04-22T15:47:02.000Z,291.59
2023-04-22T15:48:28.000Z,291.59
2023-04-22T15:50:34.000Z,291.52
2023-04-22T15:53:29.000Z,291.4
2023-04-22T15:54:55.000Z,291.46
2023-04-22T15:57:01.000Z,291.4
2023-04-22T15:58:28.000Z,291.4
2023-04-22T16:00:38.000Z,291.27
2023-04-22T16:02:05.000Z,291.27
2023-04-22T16:04:11.000Z,291.21
2023-04-22T16:05:38.000Z,291.21
2023-04-22T16:07:44.000Z,291.21
2023-04-22T16:09:11.000Z,291.15
2023-04-22T16:11:17.000Z,291.09
2023-04-22T16:12:43.000Z,291.09
2023-04-22T16:14:49.000Z,291.09
2023-04-22T16:16:16.000Z,291.09
2023-04-22T16:18:22.000Z,291.02
2023-04-22T16:19:49.000Z,291.02
2023-04-22T16:21:55.000Z,290.96
2023-04-22T16:23:21.000Z,290.9
2023-04-22T16:25:27.000Z,290.71
2023-04-22T16:26:54.000Z,290.65
2023-04-22T16:29:00.000Z,290.52
2023-04-22T16:31:51.000Z,290.4
2023-04-22T16:33:18.000Z,290.4
2023-04-22T16:35:24.000Z,290.4
2023-04-22T16:36:50.000Z,290.4
2023-04-22T16:38:57.000Z,290.34
2023-04-22T16:40:23.000Z,290.4
2023-04-22T16:42:29.000Z,290.4
2023-04-22T16:43:56.000Z,290.4
2023-04-22T16:46:02.000Z,290.34
2023-04-22T16:47:28.000Z,290.34
2023-04-22T16:49:35.000Z,290.34
2023-04-22T16:51:01.000Z,290.34
2023-04-22T16:53:07.000Z,290.4
2023-04-22T16:54:34.000Z,290.4
2023-04-22T16:56:40.000Z,290.34
2023-04-22T16:58:07.000Z,290.34
2023-04-22T17:00:13.000Z,290.4
2023-04-22T17:01:40.000Z,290.4
2023-04-22T17:03:46.000Z,290.34
2023-04-22T17:05:13.000Z,290.4
2023-04-22T17:07:19.000Z,290.34
2023-04-22T17:10:10.000Z,290.4
2023-04-22T17:11:37.000Z,290.34
2023-04-22T17:13:43.000Z,290.21
2023-04-22T17:15:10.000Z,290.21
2023-04-22T17:17:16.000Z,290.21
2023-04-22T17:18:42.000Z,290.21
2023-04-22T17:20:48.000Z,290.21
2023-04-22T17:22:15.000Z,290.21
2023-04-22T17:24:21.000Z,290.15
2023-04-22T17:25:47.000Z,290.15
2023-04-22T17:27:53.000Z,290.15
2023-04-22T17:29:20.000Z,290.15
2023-04-22T17:31:26.000Z,290.15
2023-04-22T17:32:53.000Z,290.09
2023-04-22T17:34:59.000Z,290.02
2023-04-22T17:36:26.000Z,289.96
2023-04-22T17:38:32.000Z,289.9
2023-04-22T17:39:58.000Z,289.9
2023-04-22T17:42:04.000Z,289.9
2023-04-22T17:43:31.000Z,289.84
2023-04-22T17:45:37.000Z,289.77
2023-04-22T17:48:28.000Z,289.77
2023-04-22T17:49:55.000Z,289.77
2023-04-22T17:52:01.000Z,289.77
2023-04-22T17:53:27.000Z,289.77
2023-04-22T17:55:34.000Z,289.77
2023-04-22T17:57:00.000Z,289.77
2023-04-22T17:59:06.000Z,289.77
2023-04-22T18:00:33.000Z,289.77
2023-04-22T18:02:39.000Z,289.59
2023-04-22T18:04:06.000Z,289.59
2023-04-22T18:06:12.000Z,289.52
2023-04-22T18:07:39.000Z,289.52
2023-04-22T18:09:45.000Z,289.46
2023-04-22T18:11:11.000Z,289.46
2023-04-22T18:13:17.000Z,289.4
2023-04-22T18:14:44.000Z,289.4
2023-04-22T18:16:50.000Z,289.4
2023-04-22T18:18:17.000Z,289.34
2023-04-22T18:20:23.000Z,289.34
2023-04-22T18:21:49.000Z,289.27
2023-04-22T18:24:04.000Z,289.21
2023-04-22T18:26:55.000Z,289.21
2023-04-22T18:28:22.000Z,289.15
2023-04-22T18:30:28.000Z,289.15
2023-04-22T18:31:57.000Z,289.15
2023-04-22T18:34:03.000Z,289.09
2023-04-22T18:35:29.000Z,289.15
2023-04-22T18:37:35.000Z,289.09
2023-04-22T18:39:02.000Z,289.02
2023-04-22T18:41:08.000Z,288.96
2023-04-22T18:42:35.000Z,288.96
2023-04-22T18:44:41.000Z,288.96
2023-04-22T18:46:08.000Z,288.9
2023-04-22T18:48:14.000Z,288.84
2023-04-22T18:49:40.000Z,288.84
2023-04-22T18:51:46.000Z,288.77
2023-04-22T18:53:13.000Z,288.77
2023-04-22T18:55:19.000Z,288.71
2023-04-22T18:56:46.000Z,288.65
2023-04-22T18:58:52.000Z,288.59
2023-04-22T19:00:19.000Z,288.65
2023-04-22T19:02:26.000Z,288.59
2023-04-22T19:05:17.000Z,288.52
2023-04-22T19:06:43.000Z,288.46
2023-04-22T19:08:49.000Z,288.46
2023-04-22T19:10:16.000Z,288.46
2023-04-22T19:12:22.000Z,288.4
2023-04-22T19:13:48.000Z,288.34
2023-04-22T19:15:57.000Z,288.21
2023-04-22T19:17:24.000Z,288.27
2023-04-22T19:19:30.000Z,288.21
2023-04-22T19:20:56.000Z,288.21
2023-04-22T19:23:03.000Z,288.15
2023-04-22T19:24:29.000Z,288.15
2023-04-22T19:26:35.000Z,288.15
2023-04-22T19:28:02.000Z,288.09
2023-04-22T19:30:08.000Z,288.02
2023-04-22T19:31:34.000Z,288.02
2023-04-22T19:33:40.000Z,288.02
2023-04-22T19:35:07.000Z,288.09
2023-04-22T19:37:13.000Z,287.96
2023-04-22T19:38:39.000Z,287.9
2023-04-22T19:40:46.000Z,287.77
2023-04-22T19:43:37.000Z,287.84
2023-04-22T19:45:03.000Z,287.84
2023-04-22T19:47:09.000Z,287.84
2023-04-22T19:48:36.000Z,287.84
2023-04-22T19:50:42.000Z,287.84
2023-04-22T19:52:08.000Z,287.9
2023-04-22T19:54:14.000Z,287.84
2023-04-22T19:55:41.000Z,287.84
2023-04-22T19:57:47.000Z,287.77
2023-04-22T19:59:13.000Z,287.77
2023-04-22T20:01:20.000Z,287.77
2023-04-22T20:02:46.000Z,287.77
2023-04-22T20:04:52.000Z,287.84
2023-04-22T20:06:19.000Z,287.9
2023-04-22T20:08:25.000Z,287.84
2023-04-22T20:09:51.000Z,287.84
2023-04-22T20:11:57.000Z,287.77
2023-04-22T20:13:24.000Z,287.84
2023-04-22T20:15:30.000Z,287.77
2023-04-22T20:16:57.000Z,287.71
2023-04-22T20:19:03.000Z,287.71
2023-04-22T20:21:54.000Z,287.65
2023-04-22T20:23:21.000Z,287.65
2023-04-22T20:25:27.000Z,287.71
2023-04-22T20:26:53.000Z,287.71
2023-04-22T20:28:59.000Z,287.71
2023-04-22T20:30:26.000Z,287.65
2023-04-22T20:32:32.000Z,287.59
2023-04-22T20:33:58.000Z,287.59
2023-04-22T20:36:05.000Z,287.59
2023-04-22T20:37:31.000Z,287.65
2023-04-22T20:39:37.000Z,287.52
2023-04-22T20:41:04.000Z,287.46
2023-04-22T20:43:10.000Z,287.46
2023-04-22T20:44:36.000Z,287.34
2023-04-22T20:46:43.000Z,287.27
2023-04-22T20:48:09.000Z,287.21
2023-04-22T20:50:15.000Z,287.21
2023-04-22T20:51:42.000Z,287.21
2023-04-22T20:53:48.000Z,287.09
2023-04-22T20:55:15.000Z,287.02
2023-04-22T20:57:21.000Z,287.02
2023-04-22T21:00:12.000Z,286.9
2023-04-22T21:02:03.000Z,286.9
2023-04-22T21:04:09.000Z,286.96
2023-04-22T21:05:36.000Z,286.96
2023-04-22T21:07:42.000Z,286.96
2023-04-22T21:09:08.000Z,286.96
2023-04-22T21:11:14.000Z,286.9
2023-04-22T21:12:41.000Z,286.9
2023-04-22T21:14:47.000Z,286.96
2023-04-22T21:16:14.000Z,287.02
2023-04-22T21:18:20.000Z,286.96
2023-04-22T21:19:46.000Z,286.9
2023-04-22T21:21:52.000Z,286.9
2023-04-22T21:23:19.000Z,286.9
2023-04-22T21:25:25.000Z,286.9
2023-04-22T21:26:52.000Z,286.84
2023-04-22T21:28:58.000Z,286.84
2023-04-22T21:30:24.000Z,286.84
2023-04-22T21:32:30.000Z,286.84
2023-04-22T21:36:31.000Z,286.9
2023-04-22T21:39:22.000Z,286.9
2023-04-22T21:40:49.000Z,286.9
2023-04-22T21:42:55.000Z,286.84
2023-04-22T21:44:21.000Z,286.9
2023-04-22T21:46:27.000Z,286.9
2023-04-22T21:47:54.000Z,286.84
2023-04-22T21:50:00.000Z,286.84
2023-04-22T21:51:27.000Z,286.84
2023-04-22T21:53:33.000Z,286.77
2023-04-22T21:54:59.000Z,286.77
2023-04-22T21:57:05.000Z,286.71
2023-04-22T21:58:32.000Z,286.77
2023-04-22T22:00:38.000Z,286.71
2023-04-22T22:02:04.000Z,286.71
2023-04-22T22:04:10.000Z,286.77
2023-04-22T22:05:40.000Z,286.77
2023-04-22T22:07:47.000Z,286.71
2023-04-22T22:09:13.000Z,286.65
2023-04-22T22:11:19.000Z,286.65
2023-04-22T22:12:55.000Z,286.65
2023-04-22T22:15:02.000Z,286.59
2023-04-22T22:17:53.000Z,286.52
2023-04-22T22:19:19.000Z,286.59
2023-04-22T22:21:25.000Z,286.52
2023-04-22T22:22:52.000Z,286.52
2023-04-22T22:24:58.000Z,286.46
2023-04-22T22:26:25.000Z,286.46
2023-04-22T22:28:31.000Z,286.46
2023-04-22T22:29:57.000Z,286.46
2023-04-22T22:32:03.000Z,286.4
2023-04-22T22:33:30.000Z,286.4
2023-04-22T22:35:36.000Z,286.4
2023-04-22T22:37:02.000Z,286.4
2023-04-22T22:39:08.000Z,286.4
2023-04-22T22:40:35.000Z,286.46
2023-04-22T22:42:41.000Z,286.4
2023-04-22T22:44:08.000Z,286.4
2023-04-22T22:46:14.000Z,286.34
2023-04-22T22:47:40.000Z,286.27
2023-04-22T22:49:47.000Z,286.34
2023-04-22T22:51:13.000Z,286.34
2023-04-22T22:53:22.000Z,286.34